Time;durP1;ratioP1;P1;durP2;ratioP2;P2;SDS_P1;SDS_P2;PMS_P1;PMS_P2;Temp;Humidity;BMP_temperature;BMP_pressure;BME280_temperature;BME280_humidity;BME280_pressure;Samples;Min_cycle;Max_cycle;Signal;HPM_P1;HPM_P2
2023/09/15 00:02:11;;;;;;;16.30;7.60;;;;;;;16.21;100.00;99556.08;270542;1263;22623;-86
2023/09/15 00:08:13;;;;;;;12.20;7.60;;;;;;;16.22;100.00;99562.00;271318;1270;23540;-86
2023/09/15 00:14:15;;;;;;;15.00;7.60;;;;;;;16.26;100.00;99568.61;272409;1262;22196;-86
2023/09/15 00:20:18;;;;;;;11.10;7.60;;;;;;;16.26;100.00;99571.84;270309;1270;22600;-86
2023/09/15 00:27:40;;;;;;;12.70;8.50;;;;;;;16.24;100.00;99569.02;271887;1270;22167;-87
2023/09/15 00:34:24;;;;;;;17.90;8.40;;;;;;;16.18;100.00;99565.00;273272;1269;22339;-87
2023/09/15 00:40:27;;;;;;;11.80;8.30;;;;;;;16.16;100.00;99569.73;271414;1262;23899;-87
2023/09/15 00:46:48;;;;;;;13.80;7.70;;;;;;;16.20;100.00;99575.58;270284;1270;22560;-87
2023/09/15 00:53:05;;;;;;;11.00;7.40;;;;;;;16.15;100.00;99577.64;270111;1270;22553;-87
2023/09/15 00:59:08;;;;;;;12.80;7.50;;;;;;;16.14;100.00;99578.27;270551;1269;23886;-86
2023/09/15 01:05:11;;;;;;;14.50;8.20;;;;;;;16.15;100.00;99577.63;271748;1270;22310;-87
2023/09/15 01:11:36;;;;;;;16.20;8.70;;;;;;;16.19;100.00;99580.86;273012;1272;23173;-87
2023/09/15 01:18:27;;;;;;;10.30;7.80;;;;;;;16.19;100.00;99581.65;272854;1270;22304;-86
2023/09/15 01:25:10;;;;;;;14.70;8.90;;;;;;;16.22;100.00;99578.65;272954;1271;22182;-86
2023/09/15 01:31:12;;;;;;;15.60;8.90;;;;;;;16.22;100.00;99580.29;273033;1265;22250;-87
2023/09/15 01:37:14;;;;;;;12.80;7.90;;;;;;;16.18;100.00;99580.31;272974;1270;22177;-87
2023/09/15 01:43:18;;;;;;;14.50;8.30;;;;;;;16.16;100.00;99584.09;271075;1270;23251;-87
2023/09/15 01:49:20;;;;;;;15.10;8.90;;;;;;;16.12;100.00;99586.00;270161;1270;22631;-86
2023/09/15 01:55:27;;;;;;;18.70;9.80;;;;;;;16.12;100.00;99589.71;272360;1270;23065;-86
2023/09/15 02:01:49;;;;;;;15.50;9.50;;;;;;;16.13;100.00;99593.58;273559;1270;22243;-87
2023/09/15 02:07:50;;;;;;;13.90;8.20;;;;;;;16.10;100.00;99587.35;273250;1270;22403;-87
2023/09/15 02:13:52;;;;;;;11.60;8.60;;;;;;;16.09;100.00;99590.59;272934;1270;22559;-86
2023/09/15 02:19:54;;;;;;;13.80;8.50;;;;;;;16.10;100.00;99591.84;270782;1263;24246;-87
2023/09/15 02:25:56;;;;;;;9.10;7.40;;;;;;;16.06;100.00;99585.31;270498;1269;22185;-87
2023/09/15 02:31:58;;;;;;;10.90;8.30;;;;;;;16.05;100.00;99586.73;270903;1267;22706;-87
2023/09/15 02:37:59;;;;;;;11.90;8.80;;;;;;;15.97;100.00;99589.89;271068;1269;22605;-87
2023/09/15 02:44:43;;;;;;;13.30;8.30;;;;;;;15.90;100.00;99596.11;270306;1262;23392;-86
2023/09/15 02:50:59;;;;;;;11.60;8.20;;;;;;;15.87;100.00;99598.66;272012;1272;22198;-86
2023/09/15 02:57:03;;;;;;;15.40;9.40;;;;;;;15.87;100.00;99603.16;273153;1261;23449;-86
2023/09/15 03:03:05;;;;;;;12.90;8.40;;;;;;;15.83;100.00;99608.68;271006;1263;22867;-86
2023/09/15 03:09:13;;;;;;;14.30;9.90;;;;;;;15.78;100.00;99615.39;272342;1271;22807;-86
2023/09/15 03:15:17;;;;;;;16.20;10.60;;;;;;;15.76;100.00;99612.39;271188;1270;23878;-86
2023/09/15 03:21:22;;;;;;;16.10;9.50;;;;;;;15.75;100.00;99611.12;271181;1270;22324;-87
2023/09/15 03:27:23;;;;;;;20.50;10.50;;;;;;;15.72;100.00;99607.42;272919;1256;22851;-87
2023/09/15 03:33:27;;;;;;;17.60;9.60;;;;;;;15.68;100.00;99608.60;270678;1270;22540;-86
2023/09/15 03:39:28;;;;;;;13.00;9.50;;;;;;;15.63;100.00;99612.53;270595;1270;22654;-87
2023/09/15 03:45:34;;;;;;;18.20;10.70;;;;;;;15.50;100.00;99617.41;272243;1270;22309;-87
2023/09/15 03:51:36;;;;;;;17.90;10.40;;;;;;;15.43;100.00;99617.64;271930;1270;22210;-88
2023/09/15 03:57:38;;;;;;;19.10;11.60;;;;;;;15.39;100.00;99621.65;273175;1270;22202;-88
2023/09/15 04:03:40;;;;;;;18.00;11.10;;;;;;;15.33;100.00;99627.36;273159;1271;22521;-88
2023/09/15 04:09:42;;;;;;;15.10;11.10;;;;;;;15.31;100.00;99632.58;270949;1271;22226;-87
2023/09/15 04:16:04;;;;;;;17.90;11.10;;;;;;;15.25;100.00;99639.02;273243;1265;22282;-87
2023/09/15 04:22:06;;;;;;;29.70;10.70;;;;;;;15.23;100.00;99645.47;271163;1270;22692;-87
2023/09/15 04:28:08;;;;;;;16.10;10.70;;;;;;;15.19;100.00;99651.92;270097;1264;22557;-87
2023/09/15 04:34:31;;;;;;;16.80;11.10;;;;;;;15.18;100.00;99656.89;272232;1270;22200;-87
2023/09/15 04:40:54;;;;;;;17.80;10.70;;;;;;;15.19;100.00;99665.95;272995;1268;23639;-87
2023/09/15 04:47:56;;;;;;;13.60;8.60;;;;;;;15.20;100.00;99668.55;273094;1270;23056;-87
2023/09/15 04:54:18;;;;;;;15.30;9.40;;;;;;;15.22;100.00;99671.00;273019;1266;22202;-87
2023/09/15 05:00:23;;;;;;;14.30;9.30;;;;;;;15.29;100.00;99677.55;273197;1262;23448;-87
2023/09/15 05:07:25;;;;;;;16.40;9.50;;;;;;;15.38;100.00;99681.94;273369;1272;22213;-87
2023/09/15 05:13:49;;;;;;;16.30;8.60;;;;;;;15.35;100.00;99687.27;273504;1270;22984;-87
2023/09/15 05:19:51;;;;;;;12.50;8.50;;;;;;;15.41;100.00;99690.15;271743;1270;23344;-87
2023/09/15 05:25:53;;;;;;;11.70;7.90;;;;;;;15.44;100.00;99693.79;270089;1267;22530;-87
2023/09/15 05:31:56;;;;;;;14.60;8.20;;;;;;;15.46;100.00;99689.54;271378;1255;23483;-87
2023/09/15 05:38:09;;;;;;;18.10;9.50;;;;;;;15.60;100.00;99689.26;270929;1270;22184;-87
2023/09/15 05:44:11;;;;;;;14.00;8.60;;;;;;;15.67;100.00;99696.45;272965;1263;22301;-88
2023/09/15 05:50:13;;;;;;;12.40;9.00;;;;;;;15.83;100.00;99700.48;271811;1271;22555;-87
2023/09/15 05:56:14;;;;;;;14.70;10.00;;;;;;;16.16;100.00;99701.21;273091;1272;23694;-88
2023/09/15 06:02:18;;;;;;;15.50;9.60;;;;;;;16.36;100.00;99706.49;273097;1271;22349;-87
2023/09/15 06:08:19;;;;;;;12.90;7.80;;;;;;;16.35;100.00;99708.77;273024;1270;22314;-87
2023/09/15 06:14:21;;;;;;;11.20;9.00;;;;;;;16.36;100.00;99706.64;272980;1270;22242;-87
2023/09/15 06:20:23;;;;;;;11.90;7.40;;;;;;;16.44;100.00;99709.84;273042;1270;24541;-86
2023/09/15 06:26:25;;;;;;;9.50;5.90;;;;;;;16.52;100.00;99703.50;272427;1272;22633;-86
2023/09/15 06:32:26;;;;;;;6.50;5.10;;;;;;;16.61;100.00;99709.56;270612;1271;22561;-87
2023/09/15 06:38:31;;;;;;;6.80;5.00;;;;;;;16.69;100.00;99707.98;269637;1267;22573;-86
2023/09/15 06:44:34;;;;;;;9.10;4.90;;;;;;;16.94;100.00;99704.34;269344;1272;22647;-87
2023/09/15 06:50:36;;;;;;;9.60;4.20;;;;;;;17.05;100.00;99705.25;269729;1270;22631;-85
2023/09/15 06:56:37;;;;;;;8.00;4.10;;;;;;;17.14;100.00;99702.70;269095;1270;23339;-85
2023/09/15 07:02:39;;;;;;;7.00;3.80;;;;;;;17.28;100.00;99706.04;269303;1265;22535;-86
2023/09/15 07:08:41;;;;;;;7.50;4.80;;;;;;;17.40;100.00;99712.86;269260;1272;22538;-87
2023/09/15 07:14:43;;;;;;;6.30;4.20;;;;;;;17.48;100.00;99711.02;269266;1271;22534;-86
2023/09/15 07:20:45;;;;;;;6.40;4.60;;;;;;;17.47;100.00;99719.50;270607;1271;22612;-87
2023/09/15 07:26:48;;;;;;;6.10;4.00;;;;;;;17.42;100.00;99722.52;272392;1271;22430;-86
2023/09/15 07:32:49;;;;;;;6.30;5.00;;;;;;;17.43;100.00;99720.27;272996;1272;22327;-86
2023/09/15 07:38:52;;;;;;;6.70;4.30;;;;;;;17.40;100.00;99722.81;273002;1272;22313;-86
2023/09/15 07:44:54;;;;;;;6.50;4.70;;;;;;;17.65;100.00;99724.05;272947;1272;22388;-85
2023/09/15 07:50:56;;;;;;;5.60;3.50;;;;;;;18.08;100.00;99722.58;272879;1272;22301;-86
2023/09/15 07:57:00;;;;;;;4.40;3.50;;;;;;;18.47;100.00;99725.84;272451;1269;23058;-86
2023/09/15 08:03:03;;;;;;;6.10;3.20;;;;;;;18.90;100.00;99723.52;271139;1270;22424;-86
2023/09/15 08:09:05;;;;;;;4.60;2.70;;;;;;;19.26;100.00;99724.63;271489;1270;22357;-85
2023/09/15 08:15:08;;;;;;;4.10;2.50;;;;;;;19.23;100.00;99728.46;273098;1268;24191;-86
2023/09/15 08:21:10;;;;;;;4.00;2.20;;;;;;;19.20;98.81;99733.33;273065;1271;23068;-87
2023/09/15 08:27:12;;;;;;;5.60;2.70;;;;;;;19.33;98.94;99734.06;272974;1271;22348;-87
2023/09/15 08:33:14;;;;;;;4.40;2.70;;;;;;;19.45;97.90;99730.98;273068;1270;22671;-86
2023/09/15 08:39:17;;;;;;;3.30;2.10;;;;;;;19.58;96.89;99729.52;272918;1271;22188;-85
2023/09/15 08:45:20;;;;;;;5.20;2.30;;;;;;;19.90;97.19;99729.85;272808;1270;22403;-85
2023/09/15 08:51:23;;;;;;;3.70;2.20;;;;;;;20.11;94.20;99734.95;272968;1270;22236;-86
2023/09/15 08:57:26;;;;;;;2.90;2.10;;;;;;;20.25;92.99;99734.76;272786;1270;22317;-85
2023/09/15 09:03:28;;;;;;;6.80;2.40;;;;;;;20.69;92.74;99732.71;272960;1271;22277;-85
2023/09/15 09:09:34;;;;;;;6.20;2.30;;;;;;;21.21;89.84;99729.65;272995;1269;22305;-87
2023/09/15 09:15:38;;;;;;;3.70;2.30;;;;;;;21.67;85.64;99731.58;272937;1270;22347;-87
2023/09/15 09:21:40;;;;;;;4.40;2.10;;;;;;;21.68;85.62;99733.48;272694;1270;22226;-86
2023/09/15 09:27:42;;;;;;;4.30;1.70;;;;;;;22.15;85.44;99732.96;273032;1272;22347;-87
2023/09/15 09:33:44;;;;;;;3.00;1.60;;;;;;;22.24;82.26;99733.85;272772;1270;22368;-86
2023/09/15 09:39:48;;;;;;;4.90;1.60;;;;;;;22.74;79.38;99736.96;272907;1272;22300;-89
2023/09/15 09:45:51;;;;;;;2.80;1.40;;;;;;;23.39;78.07;99739.18;272810;1272;22214;-87
2023/09/15 09:51:56;;;;;;;4.30;2.20;;;;;;;23.02;76.59;99739.55;272949;1272;22361;-86
2023/09/15 09:58:04;;;;;;;3.60;1.70;;;;;;;22.54;76.05;99735.73;272890;1272;22217;-85
2023/09/15 10:04:06;;;;;;;4.90;1.60;;;;;;;21.91;75.61;99735.73;273171;1272;22243;-86
2023/09/15 10:10:09;;;;;;;3.50;1.70;;;;;;;21.34;75.61;99734.11;272995;1271;23594;-87
2023/09/15 10:16:11;;;;;;;3.60;2.10;;;;;;;21.31;76.67;99731.70;273035;1270;22785;-86
2023/09/15 10:22:15;;;;;;;2.90;1.80;;;;;;;22.03;76.29;99719.27;272942;1270;22175;-86
2023/09/15 10:28:19;;;;;;;5.00;1.60;;;;;;;22.28;74.38;99714.61;273078;1270;23663;-87
2023/09/15 10:34:21;;;;;;;2.90;1.70;;;;;;;23.18;73.30;99709.11;271077;1264;22355;-87
2023/09/15 10:40:23;;;;;;;4.60;1.80;;;;;;;23.74;69.14;99704.52;270801;1262;22630;-87
2023/09/15 10:46:42;;;;;;;4.60;1.80;;;;;;;23.92;65.88;99699.96;269712;1272;22673;-86
2023/09/15 10:52:43;;;;;;;3.40;1.70;;;;;;;24.10;66.29;99702.80;270631;1270;22618;-85
2023/09/15 10:58:49;;;;;;;2.80;1.70;;;;;;;24.04;65.55;99707.47;272517;1272;22423;-87
2023/09/15 11:04:51;;;;;;;3.50;1.80;;;;;;;23.57;63.94;99699.85;273050;1270;23300;-87
2023/09/15 11:10:59;;;;;;;2.20;1.70;;;;;;;23.52;63.97;99696.42;272914;1272;22418;-88
2023/09/15 11:17:03;;;;;;;3.10;1.70;;;;;;;23.47;62.62;99701.90;272783;1271;142597;-87
2023/09/15 11:23:05;;;;;;;5.10;1.80;;;;;;;22.94;61.46;99701.27;272968;1272;22354;-88
2023/09/15 11:29:07;;;;;;;2.60;1.70;;;;;;;22.78;62.00;99699.55;272715;1272;22307;-88
2023/09/15 11:35:11;;;;;;;4.80;1.90;;;;;;;22.67;62.28;99701.74;272913;1270;23265;-86
2023/09/15 11:41:15;;;;;;;2.90;2.00;;;;;;;22.20;62.41;99703.67;272989;1271;22270;-87
2023/09/15 11:47:17;;;;;;;2.80;2.00;;;;;;;21.94;61.89;99697.30;272831;1271;22396;-87
2023/09/15 11:53:23;;;;;;;6.40;1.90;;;;;;;21.88;61.79;99690.52;273106;1272;22328;-87
2023/09/15 11:59:25;;;;;;;;;;;;;;;21.78;61.60;99689.94;273048;1272;22473;-87
2023/09/15 12:05:27;;;;;;;6.10;2.00;;;;;;;21.50;62.47;99683.56;273079;1272;22219;-86
2023/09/15 12:11:29;;;;;;;4.20;2.10;;;;;;;21.56;62.81;99677.52;273010;1268;22208;-83
2023/09/15 12:17:31;;;;;;;3.30;1.80;;;;;;;21.61;62.35;99675.10;273086;1272;22374;-86
2023/09/15 12:23:33;;;;;;;3.30;1.70;;;;;;;21.47;62.65;99671.20;273043;1272;22269;-88
2023/09/15 12:29:35;;;;;;;4.30;1.70;;;;;;;21.39;62.32;99664.45;271576;1270;22664;-87
2023/09/15 12:35:40;;;;;;;2.50;2.00;;;;;;;21.25;61.55;99654.81;270863;1270;22548;-87
2023/09/15 12:41:43;;;;;;;3.80;2.10;;;;;;;21.08;61.12;99650.42;271228;1270;22309;-88
2023/09/15 12:47:44;;;;;;;8.70;2.20;;;;;;;21.03;61.49;99652.27;272318;1270;25334;-87
2023/09/15 12:53:47;;;;;;;4.40;2.20;;;;;;;20.92;62.59;99651.52;270056;1272;22565;-85
2023/09/15 12:59:48;;;;;;;5.20;2.30;;;;;;;20.83;62.42;99657.40;270209;1270;22317;-86
2023/09/15 13:05:51;;;;;;;4.80;2.20;;;;;;;20.73;61.76;99652.52;270475;1270;22407;-87
2023/09/15 13:11:57;;;;;;;5.70;1.90;;;;;;;20.73;61.80;99645.70;273029;1270;22552;-85
2023/09/15 13:17:59;;;;;;;4.60;1.80;;;;;;;20.82;61.66;99643.69;271726;1270;22582;-86
2023/09/15 13:24:01;;;;;;;3.60;1.50;;;;;;;20.78;61.99;99639.06;271137;1270;22542;-87
2023/09/15 13:30:04;;;;;;;4.00;1.80;;;;;;;20.70;62.32;99639.23;270020;1270;23690;-88
2023/09/15 13:36:06;;;;;;;3.20;1.70;;;;;;;20.63;61.26;99637.77;271294;1267;22213;-88
2023/09/15 13:42:07;;;;;;;2.70;1.60;;;;;;;20.57;61.63;99631.62;271448;1270;22525;-86
2023/09/15 13:48:09;;;;;;;2.40;1.90;;;;;;;20.56;61.47;99628.95;270154;1262;22313;-88
2023/09/15 13:54:11;;;;;;;4.30;1.80;;;;;;;20.56;60.41;99624.09;273198;1270;23487;-86
2023/09/15 14:00:13;;;;;;;4.70;1.90;;;;;;;20.49;60.25;99624.54;272145;1270;23561;-85
2023/09/15 14:06:14;;;;;;;2.90;1.60;;;;;;;20.51;60.77;99619.90;269749;1270;22622;-86
2023/09/15 14:12:16;;;;;;;3.10;1.80;;;;;;;20.50;60.79;99614.83;270539;1270;22963;-88
2023/09/15 14:18:18;;;;;;;4.90;2.50;;;;;;;20.47;60.97;99612.58;271431;1270;22569;-86
2023/09/15 14:24:23;;;;;;;5.00;1.70;;;;;;;20.45;60.19;99612.22;269981;1270;25253;-85
2023/09/15 14:30:25;;;;;;;2.50;1.70;;;;;;;20.40;60.42;99607.05;270770;1270;22332;-86
2023/09/15 14:36:27;;;;;;;3.40;2.20;;;;;;;20.37;60.42;99602.91;273155;1270;22439;-85
2023/09/15 14:42:28;;;;;;;4.70;2.10;;;;;;;20.30;60.21;99600.73;273056;1270;22387;-85
2023/09/15 14:48:30;;;;;;;3.00;1.90;;;;;;;20.25;60.91;99603.94;273198;1270;22324;-87
2023/09/15 14:54:32;;;;;;;3.70;1.80;;;;;;;20.20;61.15;99599.25;273144;1270;23006;-87
2023/09/15 15:00:34;;;;;;;3.10;1.80;;;;;;;20.14;60.79;99601.10;272996;1270;22211;-88
2023/09/15 15:06:36;;;;;;;4.20;1.90;;;;;;;20.14;60.72;99601.50;273192;1270;22325;-87
2023/09/15 15:12:38;;;;;;;2.90;1.70;;;;;;;20.09;60.60;99598.00;273224;1270;22346;-88
2023/09/15 15:18:40;;;;;;;4.90;2.00;;;;;;;20.03;60.83;99595.56;270677;1270;22545;-87
2023/09/15 15:24:42;;;;;;;5.40;1.90;;;;;;;19.94;61.10;99592.85;271421;1270;22413;-88
2023/09/15 15:30:44;;;;;;;5.10;2.00;;;;;;;19.86;61.21;99593.08;273104;1270;22324;-88
2023/09/15 15:36:46;;;;;;;4.50;1.90;;;;;;;19.79;61.12;99590.74;272378;1270;23119;-87
2023/09/15 15:42:47;;;;;;;3.40;2.00;;;;;;;19.74;61.24;99599.77;272994;1266;22323;-88
2023/09/15 15:48:49;;;;;;;3.60;1.60;;;;;;;19.68;61.81;99600.98;273128;1270;22312;-88
2023/09/15 15:54:51;;;;;;;3.50;1.90;;;;;;;19.60;61.66;99601.52;270325;1270;22589;-87
2023/09/15 16:00:53;;;;;;;2.60;1.60;;;;;;;19.52;61.94;99601.89;269861;1264;23045;-87
2023/09/15 16:06:55;;;;;;;3.50;1.90;;;;;;;19.41;62.04;99601.56;270012;1270;22245;-88
2023/09/15 16:12:56;;;;;;;5.70;1.80;;;;;;;19.30;62.52;99599.09;272903;1270;22326;-87
2023/09/15 16:18:58;;;;;;;3.20;1.80;;;;;;;19.17;62.88;99595.15;269849;1270;23782;-87
2023/09/15 16:25:00;;;;;;;6.50;2.00;;;;;;;19.03;63.05;99595.98;270173;1270;23299;-87
2023/09/15 16:31:01;;;;;;;6.30;2.10;;;;;;;18.90;63.47;99597.33;273248;1269;22371;-89
2023/09/15 16:37:04;;;;;;;3.60;2.10;;;;;;;18.76;63.68;99594.73;273115;1265;22685;-87
2023/09/15 16:43:06;;;;;;;5.00;2.00;;;;;;;18.61;64.22;99598.71;272932;1271;23294;-88
2023/09/15 16:49:08;;;;;;;4.10;1.90;;;;;;;18.44;64.49;99601.75;272900;1270;23701;-88
2023/09/15 16:55:13;;;;;;;4.80;2.10;;;;;;;18.27;65.06;99602.46;273211;1270;22328;-87
2023/09/15 17:01:15;;;;;;;6.40;2.20;;;;;;;18.10;65.70;99603.67;273232;1270;22279;-87
2023/09/15 17:07:17;;;;;;;5.90;2.20;;;;;;;17.91;66.26;99610.97;273000;1270;23487;-87
2023/09/15 17:13:19;;;;;;;9.80;3.10;;;;;;;17.71;66.81;99615.23;271799;1267;22485;-87
2023/09/15 17:19:22;;;;;;;7.80;3.70;;;;;;;17.54;67.37;99616.33;269873;1270;22325;-87
2023/09/15 17:25:25;;;;;;;8.90;2.90;;;;;;;17.38;67.98;99624.70;273281;1270;22373;-87
2023/09/15 17:31:27;;;;;;;6.90;3.20;;;;;;;17.21;68.37;99630.81;273043;1262;22387;-87
2023/09/15 17:37:33;;;;;;;7.00;2.80;;;;;;;17.08;68.97;99632.69;273145;1270;22379;-87
2023/09/15 17:43:35;;;;;;;6.60;3.00;;;;;;;16.92;69.73;99635.86;273179;1270;22391;-88
2023/09/15 17:49:38;;;;;;;5.00;2.70;;;;;;;16.76;70.29;99641.14;273218;1270;22229;-88
2023/09/15 17:55:39;;;;;;;4.10;2.60;;;;;;;16.63;70.87;99648.05;273024;1270;22320;-87
2023/09/15 18:01:41;;;;;;;7.70;3.20;;;;;;;16.54;71.19;99647.52;272991;1270;25419;-87
2023/09/15 18:07:43;;;;;;;8.90;3.40;;;;;;;16.45;71.73;99648.79;269978;1268;22543;-87
2023/09/15 18:13:48;;;;;;;7.40;3.00;;;;;;;16.38;72.19;99654.45;269287;1268;22555;-88
2023/09/15 18:19:50;;;;;;;5.60;3.10;;;;;;;16.31;72.57;99659.85;270734;1270;22552;-86
2023/09/15 18:25:51;;;;;;;5.60;3.10;;;;;;;16.24;73.00;99662.30;271575;1270;22199;-88
2023/09/15 18:31:53;;;;;;;5.30;2.90;;;;;;;16.14;73.53;99664.98;272986;1268;23422;-87
2023/09/15 18:37:55;;;;;;;9.10;3.30;;;;;;;16.04;73.82;99666.81;273155;1270;22393;-87
2023/09/15 18:43:58;;;;;;;8.10;3.00;;;;;;;15.96;74.46;99668.55;273117;1270;22390;-87
2023/09/15 18:49:59;;;;;;;10.30;3.20;;;;;;;15.86;75.10;99666.89;272107;1270;25144;-87
2023/09/15 18:56:02;;;;;;;5.60;3.30;;;;;;;15.73;75.87;99668.70;272842;1271;22442;-87
2023/09/15 19:02:04;;;;;;;7.30;3.20;;;;;;;15.59;76.49;99672.62;273150;1270;22171;-87
2023/09/15 19:08:06;;;;;;;7.20;3.50;;;;;;;15.42;76.87;99674.79;273069;1270;23374;-86
2023/09/15 19:14:08;;;;;;;7.20;4.00;;;;;;;15.26;77.54;99671.25;271760;1270;22554;-87
2023/09/15 19:20:10;;;;;;;6.80;3.30;;;;;;;15.15;78.18;99678.15;270154;1270;23055;-86
2023/09/15 19:26:12;;;;;;;7.10;3.60;;;;;;;15.05;79.02;99678.80;273075;1270;22316;-87
2023/09/15 19:32:14;;;;;;;13.10;4.50;;;;;;;14.90;80.15;99675.98;273157;1270;22374;-86
2023/09/15 19:38:16;;;;;;;4.60;3.40;;;;;;;14.67;81.30;99677.69;273182;1270;22352;-87
2023/09/15 19:44:18;;;;;;;7.00;3.80;;;;;;;14.46;82.04;99678.89;273021;1270;22181;-87
2023/09/15 19:50:19;;;;;;;10.10;4.20;;;;;;;14.35;82.39;99680.41;273085;1270;23033;-87
2023/09/15 19:56:21;;;;;;;7.50;4.30;;;;;;;14.18;82.85;99679.07;273012;1270;22319;-87
2023/09/15 20:02:23;;;;;;;8.20;3.50;;;;;;;14.01;83.39;99680.98;272985;1270;22322;-87
2023/09/15 20:08:26;;;;;;;10.00;3.90;;;;;;;13.85;83.67;99678.26;271658;1270;22611;-87
2023/09/15 20:14:29;;;;;;;8.10;4.10;;;;;;;13.72;84.58;99676.80;272043;1270;23072;-88
2023/09/15 20:20:30;;;;;;;6.90;4.40;;;;;;;13.57;85.26;99673.82;273100;1270;22258;-88
2023/09/15 20:26:32;;;;;;;8.00;4.60;;;;;;;13.44;85.42;99673.77;273157;1270;22232;-88
2023/09/15 20:32:34;;;;;;;9.90;4.70;;;;;;;13.29;85.77;99667.57;273141;1270;22884;-88
2023/09/15 20:38:36;;;;;;;7.60;4.30;;;;;;;13.19;86.28;99669.41;273142;1270;22335;-87
2023/09/15 20:44:40;;;;;;;7.60;4.10;;;;;;;13.07;86.54;99666.91;273104;1270;22245;-87
2023/09/15 20:50:47;;;;;;;9.10;4.70;;;;;;;12.93;86.95;99667.02;273205;1270;23292;-88
2023/09/15 20:56:48;;;;;;;7.00;4.40;;;;;;;12.77;87.17;99663.77;271812;1270;22375;-87
2023/09/15 21:02:50;;;;;;;8.60;4.90;;;;;;;12.70;87.29;99662.17;273147;1270;22320;-87
2023/09/15 21:08:52;;;;;;;9.90;4.50;;;;;;;12.70;88.68;99662.65;273137;1270;22322;-86
2023/09/15 21:14:54;;;;;;;10.00;4.40;;;;;;;12.82;90.31;99666.89;273069;1266;22950;-86
2023/09/15 21:20:56;;;;;;;9.90;4.70;;;;;;;12.89;90.93;99668.09;273104;1271;23331;-87
2023/09/15 21:26:59;;;;;;;9.50;4.90;;;;;;;12.87;90.75;99663.41;271882;1270;22311;-87
2023/09/15 21:33:01;;;;;;;7.10;5.30;;;;;;;12.64;90.43;99662.02;273022;1270;22336;-87
2023/09/15 21:39:03;;;;;;;11.80;5.40;;;;;;;12.39;90.85;99662.08;273034;1270;23675;-85
2023/09/15 21:45:05;;;;;;;10.80;5.50;;;;;;;12.20;91.38;99658.65;270796;1270;22534;-86
2023/09/15 21:51:07;;;;;;;12.60;6.90;;;;;;;12.04;91.89;99653.15;271965;1270;22194;-87
2023/09/15 21:57:10;;;;;;;10.50;6.10;;;;;;;11.94;92.59;99648.61;273210;1267;22198;-87
2023/09/15 22:03:12;;;;;;;9.90;5.30;;;;;;;11.92;92.96;99649.02;273031;1270;22312;-87
2023/09/15 22:09:14;;;;;;;9.90;6.10;;;;;;;11.93;93.42;99652.26;273200;1270;22275;-87
2023/09/15 22:15:17;;;;;;;11.90;5.80;;;;;;;11.94;93.93;99652.45;272997;1271;22301;-86
2023/09/15 22:21:23;;;;;;;10.30;5.50;;;;;;;11.89;94.12;99652.11;270909;1270;23402;-86
2023/09/15 22:27:26;;;;;;;9.90;5.90;;;;;;;11.87;94.96;99652.95;272575;1270;26159;-86
2023/09/15 22:33:27;;;;;;;12.50;6.20;;;;;;;11.90;95.36;99653.33;269475;1271;22527;-87
2023/09/15 22:39:29;;;;;;;10.70;6.20;;;;;;;11.85;95.28;99653.33;272005;1271;23625;-87
2023/09/15 22:45:32;;;;;;;15.70;6.30;;;;;;;11.76;95.70;99659.66;273140;1270;22401;-86
2023/09/15 22:51:33;;;;;;;13.40;6.60;;;;;;;11.62;95.26;99660.27;273145;1270;22246;-87
2023/09/15 22:57:35;;;;;;;10.40;6.40;;;;;;;11.41;95.70;99651.98;273163;1272;22338;-87
2023/09/15 23:03:37;;;;;;;10.50;6.70;;;;;;;11.39;97.30;99648.10;272835;1272;24205;-87
2023/09/15 23:09:39;;;;;;;14.20;6.50;;;;;;;11.46;98.05;99645.57;269225;1270;22581;-87
2023/09/15 23:15:41;;;;;;;12.50;7.10;;;;;;;11.54;98.21;99644.84;269260;1270;275972;-86
2023/09/15 23:21:42;;;;;;;11.70;6.90;;;;;;;11.62;98.49;99641.94;269224;1271;22544;-85
2023/09/15 23:27:44;;;;;;;13.50;7.40;;;;;;;11.66;98.84;99641.62;270074;1270;22599;-86
2023/09/15 23:33:48;;;;;;;11.50;7.50;;;;;;;11.64;99.03;99637.60;271791;1263;22401;-86
2023/09/15 23:39:49;;;;;;;12.50;7.00;;;;;;;11.59;98.93;99635.92;269892;1270;25510;-86
2023/09/15 23:45:51;;;;;;;14.70;7.90;;;;;;;11.54;99.49;99629.80;273005;1270;23340;-86
2023/09/15 23:51:53;;;;;;;12.50;7.50;;;;;;;11.53;99.97;99634.23;273008;1271;22192;-86
2023/09/15 23:57:55;;;;;;;15.60;7.80;;;;;;;11.55;100.00;99632.97;272502;1272;22604;-86
